Time;durP1;ratioP1;P1;durP2;ratioP2;P2;SDS_P1;SDS_P2;PMS_P1;PMS_P2;Temp;Humidity;BMP_temperature;BMP_pressure;BME280_temperature;BME280_humidity;BME280_pressure;Samples;Min_cycle;Max_cycle;Signal;HPM_P1;HPM_P2
2023/03/13 00:01:33;;;;;;;20.02;3.67;;;9.00;99.90;;;10.46;92.08;99609.44;5046702;28;20046;-77
2023/03/13 00:03:59;;;;;;;21.90;4.55;;;9.00;99.90;;;10.41;92.62;99604.72;5032238;28;20048;-77
2023/03/13 00:06:31;;;;;;;19.98;4.00;;;9.00;99.90;;;10.35;92.74;99609.19;5032399;28;20039;-77
2023/03/13 00:08:59;;;;;;;27.52;4.28;;;9.00;99.90;;;10.38;92.49;99601.59;5031063;28;20323;-77
2023/03/13 00:11:26;;;;;;;23.80;4.53;;;9.00;99.90;;;10.28;92.37;99594.88;5026169;28;20046;-77
2023/03/13 00:13:59;;;;;;;18.42;3.58;;;9.10;99.90;;;10.32;93.05;99597.94;5032769;28;20048;-77
2023/03/13 00:16:26;;;;;;;20.58;3.78;;;9.10;99.90;;;10.20;93.08;99587.91;5031220;28;20412;-77
2023/03/13 00:18:54;;;;;;;21.13;4.50;;;9.00;99.90;;;10.12;92.80;99591.00;5032338;28;20146;-77
2023/03/13 00:21:23;;;;;;;20.27;3.50;;;9.00;99.90;;;10.16;93.24;99586.72;5031645;28;20361;-77
2023/03/13 00:23:51;;;;;;;24.40;3.45;;;9.00;99.90;;;10.05;93.34;99573.94;5047073;28;20040;-76
2023/03/13 00:26:20;;;;;;;20.73;3.25;;;8.90;99.90;;;10.01;93.41;99576.34;5031263;28;20455;-77
2023/03/13 00:28:47;;;;;;;25.92;3.75;;;8.80;99.90;;;9.84;94.49;99578.13;5031094;28;20064;-77
2023/03/13 00:31:21;;;;;;;15.10;3.00;;;8.80;99.90;;;9.81;93.66;99571.25;5035266;28;20491;-77
2023/03/13 00:33:53;;;;;;;19.92;3.95;;;8.70;99.90;;;9.86;93.99;99567.81;5032092;28;20584;-77
2023/03/13 00:36:26;;;;;;;18.02;3.83;;;8.70;99.90;;;9.88;93.30;99566.53;5043670;28;20087;-77
2023/03/13 00:38:53;;;;;;;17.17;3.38;;;8.70;99.90;;;9.92;92.26;99572.31;5027488;28;20037;-76
2023/03/13 00:41:26;;;;;;;23.50;5.47;;;8.70;99.90;;;10.01;92.26;99564.59;5030796;28;20033;-77
2023/03/13 00:43:53;;;;;;;20.63;3.50;;;8.70;99.90;;;10.00;91.69;99554.75;5029853;28;20061;-77
2023/03/13 00:46:22;;;;;;;17.75;3.60;;;8.70;99.90;;;9.95;91.55;99550.06;5039576;28;20041;-77
2023/03/13 00:48:49;;;;;;;25.95;5.75;;;8.70;99.90;;;9.88;91.45;99552.91;5030574;28;20083;-76
2023/03/13 00:51:17;;;;;;;21.52;4.88;;;8.70;99.90;;;9.97;91.13;99542.47;5027797;28;20047;-77
2023/03/13 00:53:44;;;;;;;15.32;3.25;;;8.70;99.90;;;10.03;90.30;99540.66;5030571;28;20029;-77
2023/03/13 00:56:13;;;;;;;19.13;3.03;;;8.70;99.90;;;10.11;89.81;99534.84;5029838;28;20041;-78
2023/03/13 00:58:41;;;;;;;17.83;4.00;;;8.70;99.90;;;10.11;89.55;99543.03;5031285;28;20029;-77
2023/03/13 01:01:21;;;;;;;17.60;3.20;;;8.80;99.90;;;10.10;89.39;99532.34;5031226;28;20660;-77
2023/03/13 01:03:57;;;;;;;16.15;3.70;;;8.80;99.90;;;10.06;89.42;99529.28;5030876;28;20032;-77
2023/03/13 01:06:27;;;;;;;18.83;3.47;;;8.90;99.90;;;10.21;88.65;99526.88;5027000;28;20048;-78
2023/03/13 01:08:58;;;;;;;19.17;3.17;;;8.90;99.90;;;10.25;87.90;99518.19;5025719;28;20076;-77
2023/03/13 01:11:27;;;;;;;18.00;3.37;;;8.90;99.90;;;10.25;87.90;99515.47;5025841;28;20029;-77
2023/03/13 01:14:00;;;;;;;21.67;4.18;;;9.00;99.90;;;10.08;87.98;99506.16;5028525;28;20091;-77
2023/03/13 01:16:29;;;;;;;18.88;3.28;;;9.00;99.90;;;10.20;88.15;99508.84;5029847;28;20029;-77
2023/03/13 01:18:59;;;;;;;19.23;3.20;;;9.00;99.90;;;10.07;88.47;99507.25;5030066;28;20037;-76
2023/03/13 01:21:26;;;;;;;20.95;3.72;;;9.00;99.90;;;10.19;87.99;99509.09;5029225;28;20083;-77
2023/03/13 01:23:53;;;;;;;21.40;3.63;;;9.00;99.90;;;10.21;87.61;99505.06;5026610;28;20397;-77
2023/03/13 01:26:20;;;;;;;15.45;4.22;;;9.10;99.90;;;10.22;87.02;99506.72;5030251;28;20067;-77
2023/03/13 01:28:47;;;;;;;18.83;3.60;;;9.10;99.90;;;10.30;86.50;99491.03;5030473;28;20111;-77
2023/03/13 01:31:28;;;;;;;15.95;3.50;;;9.20;99.90;;;10.36;86.57;99501.00;5030470;28;20041;-77
2023/03/13 01:33:56;;;;;;;;;;;9.20;99.90;;;10.32;86.76;99489.75;5025883;28;20392;-78
2023/03/13 01:36:22;;;;;;;19.20;3.38;;;9.20;99.90;;;10.18;86.93;99483.75;5024781;28;19920;-77
2023/03/13 01:38:51;;;;;;;20.73;3.65;;;9.20;99.90;;;10.15;87.43;99476.06;5044920;28;20056;-77
2023/03/13 01:41:19;;;;;;;20.15;3.50;;;9.20;99.90;;;10.13;88.33;99474.63;5044121;28;20496;-77
2023/03/13 01:43:46;;;;;;;;;;;9.10;99.90;;;10.11;87.93;99472.16;5023380;28;20139;-77
2023/03/13 01:46:26;;;;;;;14.65;3.85;;;9.10;99.90;;;10.15;88.64;99472.50;5028445;28;20332;-77
2023/03/13 01:49:32;;;;;;;15.40;3.03;;;9.00;99.90;;;9.99;88.94;99461.31;5027999;28;20528;-77
2023/03/13 01:52:11;;;;;;;16.55;3.17;;;9.00;99.90;;;9.99;90.19;99461.31;5029911;28;20147;-77
2023/03/13 01:54:59;;;;;;;14.95;3.28;;;8.90;99.90;;;9.89;92.39;99448.31;5043753;28;20116;-77
2023/03/13 01:57:39;;;;;;;19.73;3.95;;;8.90;99.90;;;9.77;93.98;99447.50;5024331;28;20041;-77
2023/03/13 02:00:16;;;;;;;21.23;3.60;;;8.80;99.90;;;9.74;95.53;99447.97;5028207;28;20029;-77
2023/03/13 02:02:51;;;;;;;18.00;3.70;;;8.60;99.90;;;9.51;98.18;99446.94;5026442;28;20037;-77
2023/03/13 02:05:21;;;;;;;21.13;3.88;;;8.50;99.90;;;9.37;100.00;99443.66;5028444;28;20073;-77
2023/03/13 02:08:12;;;;;;;17.40;3.35;;;8.40;99.90;;;9.27;100.00;99438.81;5045646;28;20033;-77
2023/03/13 02:10:48;;;;;;;20.60;3.83;;;8.30;99.90;;;9.18;100.00;99424.75;5040489;28;20520;-77
2023/03/13 02:13:16;;;;;;;20.20;3.70;;;8.20;99.90;;;9.13;100.00;99423.81;5029021;28;20417;-78
2023/03/13 02:15:42;;;;;;;;;;;8.10;99.90;;;9.02;100.00;99417.31;5037667;28;20085;-78
2023/03/13 02:18:09;;;;;;;21.08;3.60;;;8.00;99.90;;;8.96;100.00;99402.75;5011755;28;19921;-77
2023/03/13 02:20:39;;;;;;;16.20;3.67;;;7.90;99.90;;;8.96;100.00;99402.75;5029748;28;20045;-77
2023/03/13 02:23:23;;;;;;;17.98;3.95;;;7.90;99.90;;;8.91;100.00;99395.31;5029354;28;20456;-77
2023/03/13 02:25:53;;;;;;;16.40;3.38;;;7.80;99.90;;;9.00;100.00;99397.66;5029684;28;20557;-78
2023/03/13 02:28:32;;;;;;;22.30;3.90;;;7.80;99.90;;;8.91;100.00;99391.75;5040413;28;20033;-77
2023/03/13 02:31:00;;;;;;;23.20;4.32;;;7.70;99.90;;;8.85;100.00;99387.28;5028551;28;20119;-77
2023/03/13 02:33:30;;;;;;;21.33;3.38;;;7.70;99.90;;;8.99;100.00;99380.50;5024908;28;20569;-78
2023/03/13 02:35:59;;;;;;;16.88;3.75;;;7.80;99.90;;;9.04;100.00;99385.25;5025478;28;20043;-77
2023/03/13 02:38:29;;;;;;;22.50;4.15;;;7.80;99.90;;;9.08;100.00;99375.53;5028146;28;20124;-77
2023/03/13 02:40:58;;;;;;;16.17;4.43;;;7.80;99.90;;;9.17;100.00;99359.69;5013711;28;20037;-77
2023/03/13 02:43:37;;;;;;;18.52;4.63;;;7.70;99.90;;;9.17;100.00;99346.06;5044844;28;20129;-77
2023/03/13 02:46:14;;;;;;;12.68;3.78;;;7.70;99.90;;;9.10;100.00;99354.34;5027602;28;20790;-77
2023/03/13 02:48:50;;;;;;;21.80;4.60;;;7.70;99.90;;;9.05;100.00;99357.81;5028334;28;20037;-77
2023/03/13 02:51:36;;;;;;;23.75;4.15;;;7.80;99.90;;;8.97;100.00;99333.69;5028136;28;20033;-77
2023/03/13 02:54:11;;;;;;;18.70;3.90;;;7.80;99.90;;;8.91;100.00;99331.91;5041640;28;20030;-77
2023/03/13 02:56:40;;;;;;;16.38;3.58;;;7.80;99.90;;;8.92;100.00;99328.13;5042331;28;20048;-77
2023/03/13 02:59:07;;;;;;;23.17;4.15;;;7.80;99.90;;;8.88;100.00;99313.34;5027596;28;20533;-77
2023/03/13 03:01:37;;;;;;;20.88;3.60;;;7.80;99.90;;;8.93;100.00;99299.88;5006437;28;20053;-78
2023/03/13 03:04:03;;;;;;;15.20;3.33;;;7.80;99.90;;;8.85;100.00;99302.97;5028817;28;20393;-77
2023/03/13 03:06:30;;;;;;;12.80;3.13;;;7.80;99.90;;;8.84;100.00;99302.13;4999747;28;20037;-77
2023/03/13 03:08:56;;;;;;;21.90;3.70;;;7.80;99.90;;;8.86;100.00;99283.66;5028543;28;20029;-78
2023/03/13 03:11:24;;;;;;;16.40;3.50;;;7.80;99.90;;;8.89;100.00;99274.22;5029380;28;20068;-77
2023/03/13 03:13:58;;;;;;;13.98;3.13;;;7.90;99.90;;;8.92;100.00;99276.44;5043156;28;20057;-77
2023/03/13 03:16:25;;;;;;;16.15;3.67;;;7.90;99.90;;;8.81;100.00;99259.09;5041295;28;20034;-78
2023/03/13 03:18:51;;;;;;;19.17;3.53;;;7.90;99.90;;;8.91;100.00;99253.03;5025773;28;20026;-77
2023/03/13 03:21:16;;;;;;;18.33;3.55;;;7.80;99.90;;;8.96;100.00;99249.59;5011005;28;20094;-78
2023/03/13 03:23:42;;;;;;;22.08;4.10;;;7.80;99.90;;;8.80;100.00;99235.69;5044284;28;20451;-78
2023/03/13 03:26:08;;;;;;;21.75;4.57;;;7.70;99.90;;;8.73;100.00;99240.44;5029425;28;20050;-77
2023/03/13 03:28:34;;;;;;;19.95;3.58;;;7.70;99.90;;;8.71;100.00;99234.41;5028077;28;20453;-78
2023/03/13 03:31:06;;;;;;;16.85;3.97;;;7.70;99.90;;;8.61;100.00;99224.13;5044174;28;20469;-77
2023/03/13 03:33:34;;;;;;;19.88;3.35;;;7.60;99.90;;;8.59;100.00;99215.38;5033528;28;20511;-77
2023/03/13 03:36:06;;;;;;;19.92;3.67;;;7.60;99.90;;;8.62;100.00;99223.06;5044827;28;20037;-77
2023/03/13 03:38:33;;;;;;;18.25;3.55;;;7.60;99.90;;;8.56;100.00;99207.72;5044131;28;20107;-77
2023/03/13 03:40:59;;;;;;;23.88;3.45;;;7.70;99.90;;;8.65;100.00;99200.03;5020518;28;20065;-77
2023/03/13 03:43:25;;;;;;;15.85;3.33;;;7.60;99.90;;;8.56;100.00;99199.56;5036119;28;20388;-76
2023/03/13 03:45:51;;;;;;;16.83;3.65;;;7.60;99.90;;;8.54;100.00;99188.09;5030468;28;20029;-76
2023/03/13 03:48:19;;;;;;;14.45;3.05;;;7.70;99.90;;;8.67;100.00;99185.09;5047831;28;20036;-77
2023/03/13 03:50:45;;;;;;;18.25;3.10;;;7.80;99.90;;;8.71;100.00;99175.41;5030277;28;20037;-77
2023/03/13 03:53:13;;;;;;;20.23;3.50;;;7.80;99.90;;;8.73;100.00;99170.53;5045109;28;20092;-76
2023/03/13 03:55:39;;;;;;;16.30;3.03;;;7.80;99.90;;;8.75;100.00;99160.28;5046726;28;20033;-77
2023/03/13 03:58:05;;;;;;;17.90;3.25;;;7.80;99.90;;;8.75;100.00;99149.41;5046870;28;20037;-77
2023/03/13 04:01:00;;;;;;;16.60;2.80;;;7.80;99.90;;;8.74;100.00;99142.28;5035502;28;20438;-77
2023/03/13 04:03:26;;;;;;;14.90;3.17;;;7.80;99.90;;;8.82;100.00;99145.72;5029889;28;20100;-77
2023/03/13 04:05:52;;;;;;;17.63;3.33;;;7.90;99.90;;;8.85;100.00;99147.94;5031857;28;20037;-77
2023/03/13 04:08:19;;;;;;;16.10;3.80;;;7.80;99.90;;;8.78;100.00;99135.31;5029105;28;20042;-77
2023/03/13 04:10:44;;;;;;;17.15;4.05;;;7.80;99.90;;;8.84;100.00;99140.84;5031236;28;20064;-77
2023/03/13 04:13:11;;;;;;;15.15;2.88;;;7.80;99.90;;;8.76;100.00;99129.31;5047383;28;20033;-77
2023/03/13 04:15:39;;;;;;;14.88;3.28;;;7.80;99.90;;;8.87;100.00;99134.94;5031834;28;20092;-77
2023/03/13 04:18:06;;;;;;;22.67;3.05;;;7.80;99.90;;;8.93;100.00;99136.66;5046520;28;20044;-77
2023/03/13 04:20:33;;;;;;;18.70;3.10;;;7.90;99.90;;;8.86;100.00;99144.16;5036856;28;20129;-77
2023/03/13 04:22:59;;;;;;;17.80;3.03;;;8.00;99.90;;;8.99;100.00;99146.56;5044754;28;20037;-77
2023/03/13 04:25:25;;;;;;;19.70;3.40;;;8.00;99.90;;;8.98;100.00;99134.03;5029831;28;20171;-77
2023/03/13 04:27:53;;;;;;;19.00;3.85;;;8.00;99.90;;;8.92;100.00;99124.97;5033519;28;20496;-77
2023/03/13 04:30:22;;;;;;;18.05;3.33;;;8.00;99.90;;;9.03;100.00;99109.69;5046354;28;20044;-77
2023/03/13 04:33:11;;;;;;;16.52;2.92;;;8.00;99.90;;;8.95;100.00;99107.31;5027083;28;20402;-77
2023/03/13 04:36:02;;;;;;;18.25;3.70;;;8.10;99.90;;;8.93;100.00;99101.31;5039711;28;20147;-77
2023/03/13 04:38:46;;;;;;;21.63;3.00;;;8.00;99.90;;;8.87;100.00;99084.06;5031140;28;20044;-77
2023/03/13 04:41:22;;;;;;;15.70;3.13;;;8.00;99.90;;;8.85;100.00;99086.19;5025758;28;20104;-77
2023/03/13 04:44:04;;;;;;;16.00;3.25;;;8.00;99.90;;;8.75;100.00;99076.00;5044422;28;20030;-78
2023/03/13 04:46:38;;;;;;;18.63;3.42;;;7.90;99.90;;;8.76;100.00;99079.50;5030127;28;20025;-77
2023/03/13 04:49:31;;;;;;;19.33;3.33;;;8.00;99.90;;;8.69;100.00;99066.06;5022003;28;20029;-78
2023/03/13 04:52:17;;;;;;;15.90;3.33;;;7.90;99.90;;;8.66;100.00;99055.69;5031474;28;20045;-78
2023/03/13 04:55:06;;;;;;;19.98;3.90;;;7.90;99.90;;;8.71;100.00;99058.47;5032269;28;20029;-77
2023/03/13 04:57:52;;;;;;;18.25;3.15;;;7.90;99.90;;;8.71;100.00;99044.09;5028287;28;20040;-78
2023/03/13 05:00:27;;;;;;;18.05;2.83;;;7.90;99.90;;;8.63;100.00;99043.41;5026032;28;20418;-77
2023/03/13 05:03:08;;;;;;;20.48;3.53;;;7.90;99.90;;;8.69;100.00;99038.06;5025706;28;20071;-78
2023/03/13 05:05:57;;;;;;;26.60;4.93;;;7.80;99.90;;;8.74;100.00;99032.72;5030765;28;20032;-77
2023/03/13 05:08:42;;;;;;;14.38;3.67;;;7.90;99.90;;;8.77;100.00;99008.59;5040786;28;20033;-78
2023/03/13 05:11:21;;;;;;;28.77;3.92;;;7.90;99.90;;;8.67;100.00;98997.50;5031815;28;20041;-78
2023/03/13 05:14:09;;;;;;;18.35;3.83;;;7.90;99.90;;;8.83;100.00;98998.59;5043949;28;20040;-78
2023/03/13 05:17:09;;;;;;;24.90;3.35;;;8.00;99.90;;;8.77;100.00;99002.31;5009190;28;20100;-79
2023/03/13 05:20:13;;;;;;;15.05;3.75;;;8.00;99.90;;;8.87;100.00;99007.91;5030426;28;20041;-77
2023/03/13 05:22:46;;;;;;;17.30;3.50;;;8.00;99.90;;;8.80;100.00;98985.50;5011113;28;20046;-79
2023/03/13 05:25:26;;;;;;;22.65;3.78;;;8.00;99.90;;;8.96;100.00;98985.78;5027695;28;20050;-78
2023/03/13 05:28:00;;;;;;;18.98;3.60;;;8.10;99.90;;;9.06;100.00;99000.38;5024458;28;20122;-77
2023/03/13 05:30:42;;;;;;;15.93;3.25;;;8.10;99.90;;;9.14;100.00;98980.06;5010113;28;20087;-80
2023/03/13 05:33:34;;;;;;;14.13;3.22;;;8.10;99.90;;;9.05;100.00;98985.13;5026152;28;20037;-78
2023/03/13 05:36:26;;;;;;;16.20;3.30;;;8.20;99.90;;;8.88;100.00;98957.88;5041989;28;20107;-79
2023/03/13 05:39:07;;;;;;;14.88;3.33;;;8.20;99.90;;;9.19;100.00;98973.88;5034514;28;20032;-78
2023/03/13 05:41:57;;;;;;;18.45;3.10;;;8.20;99.90;;;9.27;100.00;98972.66;5049977;28;20103;-77
2023/03/13 05:44:49;;;;;;;14.75;3.25;;;8.20;99.90;;;9.06;100.00;98956.84;5034563;28;20445;-76
2023/03/13 05:47:44;;;;;;;19.60;3.80;;;8.30;99.90;;;9.13;100.00;98966.72;5038789;28;20457;-77
2023/03/13 05:50:27;;;;;;;19.75;3.10;;;8.30;99.90;;;9.10;100.00;98950.91;5038624;28;20394;-75
2023/03/13 05:53:14;;;;;;;18.10;3.30;;;8.30;99.90;;;9.19;100.00;98957.56;5028454;28;21006;-75
2023/03/13 05:56:04;;;;;;;12.23;3.42;;;8.30;99.90;;;9.12;100.00;98944.13;5023843;28;20046;-76
2023/03/13 05:58:56;;;;;;;16.48;3.28;;;8.30;99.90;;;9.25;100.00;98947.59;5025428;28;20043;-76
2023/03/13 06:01:34;;;;;;;18.33;3.33;;;8.40;99.90;;;9.18;100.00;98931.41;5043427;28;20040;-76
2023/03/13 06:04:05;;;;;;;9.73;2.80;;;8.40;99.90;;;9.29;100.00;98948.72;5029848;28;20043;-78
2023/03/13 06:06:33;;;;;;;13.85;2.97;;;8.50;99.90;;;9.34;100.00;98946.91;5036462;28;20025;-76
2023/03/13 06:09:00;;;;;;;14.60;2.92;;;8.50;99.90;;;9.44;100.00;98946.22;5028518;28;20029;-76
2023/03/13 06:11:29;;;;;;;13.32;3.20;;;8.50;99.90;;;9.42;100.00;98947.56;5039731;28;20143;-75
2023/03/13 06:13:55;;;;;;;9.57;3.17;;;8.50;99.90;;;9.52;100.00;98934.06;5025108;28;20052;-77
2023/03/13 06:16:26;;;;;;;15.13;3.25;;;8.60;99.90;;;9.58;100.00;98943.97;5028357;28;20116;-75
2023/03/13 06:18:57;;;;;;;10.48;2.17;;;8.60;99.90;;;9.60;100.00;98944.53;5030847;28;20033;-75
2023/03/13 06:21:23;;;;;;;11.07;2.67;;;8.70;99.90;;;9.61;100.00;98929.84;5029879;28;20481;-76
2023/03/13 06:23:49;;;;;;;15.38;2.97;;;8.70;99.90;;;9.81;100.00;98944.78;5030025;28;20030;-76
2023/03/13 06:26:14;;;;;;;9.40;2.38;;;8.80;99.90;;;9.29;100.00;98940.56;5029298;28;20128;-75
2023/03/13 06:28:40;;;;;;;13.00;3.00;;;8.80;99.90;;;9.13;100.00;98939.50;5027142;28;20044;-75
2023/03/13 06:31:07;;;;;;;11.20;2.40;;;8.90;99.90;;;9.14;100.00;98924.84;5027751;28;20029;-75
2023/03/13 06:33:33;;;;;;;10.70;2.50;;;8.90;99.90;;;9.23;100.00;98934.22;5030550;28;20069;-75
2023/03/13 06:36:01;;;;;;;9.23;2.58;;;8.90;99.90;;;9.25;100.00;98923.91;5030105;28;20125;-77
2023/03/13 06:38:27;;;;;;;12.40;2.45;;;9.00;99.90;;;9.31;100.00;98914.75;5030079;28;20095;-76
2023/03/13 06:40:53;;;;;;;8.77;2.35;;;9.00;99.90;;;9.34;100.00;98924.31;5028050;28;20042;-77
2023/03/13 06:43:19;;;;;;;9.77;2.17;;;9.10;99.90;;;9.75;100.00;98930.28;5028876;28;20451;-77
2023/03/13 06:45:45;;;;;;;11.30;2.28;;;9.10;99.90;;;9.84;100.00;98916.22;5028504;28;20083;-76
2023/03/13 06:48:11;;;;;;;8.32;2.00;;;9.10;99.90;;;9.89;100.00;98919.00;5029034;28;20056;-77
2023/03/13 06:50:38;;;;;;;8.50;2.40;;;9.20;99.90;;;9.95;100.00;98912.56;5029526;28;20073;-76
2023/03/13 06:53:04;;;;;;;2.97;1.52;;;9.20;99.90;;;9.99;100.00;98912.84;5027862;28;20042;-75
2023/03/13 06:55:29;;;;;;;7.47;1.90;;;9.20;99.90;;;10.06;100.00;98916.19;5029024;28;20373;-76
2023/03/13 06:57:55;;;;;;;5.50;1.80;;;9.30;99.90;;;9.66;100.00;98906.47;5043077;28;20045;-76
2023/03/13 07:00:21;;;;;;;9.50;1.90;;;9.40;99.90;;;9.70;100.00;98880.38;5044464;28;20481;-76
2023/03/13 07:02:47;;;;;;;7.20;1.83;;;9.40;99.90;;;9.69;100.00;98895.06;5027350;28;20672;-76
2023/03/13 07:05:13;;;;;;;5.85;1.95;;;9.40;99.90;;;9.70;100.00;98883.09;5029300;28;20049;-76
2023/03/13 07:07:41;;;;;;;4.97;1.48;;;9.40;99.90;;;9.67;100.00;98884.44;5029452;28;20492;-76
2023/03/13 07:10:09;;;;;;;8.02;2.17;;;9.50;99.90;;;9.65;100.00;98881.13;5039361;28;20415;-77
2023/03/13 07:12:36;;;;;;;6.40;1.67;;;9.50;99.90;;;9.77;100.00;98895.47;5029736;28;20037;-76
2023/03/13 07:15:03;;;;;;;5.18;1.55;;;9.50;99.90;;;9.77;100.00;98906.34;5029458;28;20041;-76
2023/03/13 07:17:29;;;;;;;7.85;2.13;;;9.50;99.90;;;9.84;100.00;98900.72;5044187;28;20025;-75
2023/03/13 07:19:55;;;;;;;4.63;1.83;;;9.50;99.90;;;9.90;100.00;98888.78;5030129;28;20057;-75
2023/03/13 07:22:20;;;;;;;4.82;1.70;;;9.60;99.90;;;9.88;100.00;98896.41;5033581;28;20465;-75
2023/03/13 07:24:47;;;;;;;4.43;1.55;;;9.60;99.90;;;9.97;100.00;98885.03;5031364;28;20092;-75
2023/03/13 07:27:13;;;;;;;4.78;1.50;;;9.70;99.90;;;10.05;100.00;98887.31;5031522;28;20052;-76
2023/03/13 07:29:38;;;;;;;3.58;1.50;;;9.80;99.90;;;10.16;100.00;98896.41;5029669;28;20041;-76
2023/03/13 07:32:05;;;;;;;7.45;1.73;;;9.80;99.90;;;10.14;100.00;98893.94;5032784;28;20041;-76
2023/03/13 07:34:30;;;;;;;6.93;1.90;;;9.90;99.90;;;10.16;100.00;98902.69;5047643;28;20064;-77
2023/03/13 07:36:56;;;;;;;4.70;1.73;;;9.90;99.90;;;10.23;100.00;98897.03;5032215;28;20188;-77
2023/03/13 07:39:22;;;;;;;7.15;2.10;;;9.90;99.90;;;10.26;100.00;98907.44;5032633;28;20495;-77
2023/03/13 07:41:47;;;;;;;8.70;2.10;;;9.90;99.90;;;10.29;100.00;98890.56;5047313;28;20037;-77
2023/03/13 07:44:15;;;;;;;6.80;1.77;;;10.00;99.90;;;10.32;100.00;98881.84;5031225;28;20057;-77
2023/03/13 07:46:41;;;;;;;6.20;1.70;;;10.00;99.90;;;10.33;100.00;98902.59;5032557;28;20110;-77
2023/03/13 07:49:07;;;;;;;3.80;1.65;;;10.00;99.90;;;10.42;100.00;98924.78;5031810;28;20060;-78
2023/03/13 07:51:33;;;;;;;6.60;1.70;;;10.20;99.90;;;10.50;100.00;98905.22;5031523;28;20041;-77
2023/03/13 07:53:59;;;;;;;5.15;2.00;;;10.20;99.90;;;10.62;100.00;98920.59;5045163;28;20084;-78
2023/03/13 07:56:24;;;;;;;5.68;2.10;;;10.40;99.90;;;10.72;100.00;98917.94;5031383;28;20396;-77
2023/03/13 07:58:51;;;;;;;4.20;1.83;;;10.50;99.90;;;10.71;100.00;98918.19;5032635;28;20041;-79
2023/03/13 08:01:19;;;;;;;6.55;1.98;;;10.50;99.90;;;10.85;100.00;98919.41;5030338;28;20140;-78
2023/03/13 08:03:48;;;;;;;4.78;1.65;;;10.50;99.90;;;10.82;100.00;98917.22;5045513;28;20048;-78
2023/03/13 08:06:18;;;;;;;5.75;2.00;;;10.60;99.90;;;10.90;100.00;98922.19;5046270;28;20045;-77
2023/03/13 08:08:45;;;;;;;3.45;1.30;;;10.60;99.90;;;11.21;100.00;98918.84;5032527;28;20037;-78
2023/03/13 08:11:18;;;;;;;5.63;1.60;;;10.70;99.90;;;11.12;100.00;98939.50;5037343;28;20042;-81
2023/03/13 08:13:44;;;;;;;2.40;1.10;;;10.90;99.90;;;11.15;100.00;98917.19;5029347;28;20056;-78
2023/03/13 08:16:14;;;;;;;5.10;1.70;;;10.90;99.90;;;11.14;100.00;98918.25;5025088;28;20401;-76
2023/03/13 08:18:46;;;;;;;3.50;1.40;;;10.90;99.90;;;11.16;100.00;98936.00;5030308;28;20048;-76
2023/03/13 08:21:15;;;;;;;5.22;1.40;;;11.00;99.90;;;11.20;100.00;98917.22;5042544;28;20076;-77
2023/03/13 08:23:42;;;;;;;3.78;1.30;;;11.00;99.90;;;11.18;100.00;98939.28;5027008;28;20032;-76
2023/03/13 08:26:08;;;;;;;3.20;1.30;;;11.00;99.90;;;11.26;100.00;98913.41;5031826;28;20049;-80
2023/03/13 08:28:35;;;;;;;4.15;1.35;;;11.10;99.90;;;11.28;100.00;98933.09;5029010;28;20044;-78
2023/03/13 08:31:09;;;;;;;2.42;1.30;;;11.00;99.90;;;11.30;100.00;98920.00;5030323;28;20030;-78
2023/03/13 08:33:35;;;;;;;3.10;1.40;;;11.10;99.90;;;11.40;100.00;98910.22;5029146;28;20132;-79
2023/03/13 08:36:23;;;;;;;3.75;1.40;;;11.20;99.90;;;11.59;100.00;98900.47;5028089;28;20036;-79
2023/03/13 08:38:52;;;;;;;4.32;1.30;;;11.20;99.90;;;11.65;100.00;98890.41;5030249;28;20209;-80
2023/03/13 08:41:24;;;;;;;4.47;1.40;;;11.30;99.90;;;11.68;100.00;98889.06;5030872;28;20034;-78
2023/03/13 08:43:57;;;;;;;4.22;1.35;;;11.40;99.90;;;11.88;100.00;98891.03;5027704;28;20045;-79
2023/03/13 08:46:24;;;;;;;6.68;1.90;;;11.40;99.90;;;11.81;100.00;98877.63;5027752;28;20033;-79
2023/03/13 08:48:53;;;;;;;4.75;1.40;;;11.40;99.90;;;11.77;100.00;98898.38;5030064;28;20076;-79
2023/03/13 08:51:23;;;;;;;5.57;1.55;;;11.40;99.90;;;11.82;100.00;98886.66;5047338;28;20191;-81
2023/03/13 08:53:50;;;;;;;4.07;1.67;;;11.40;99.90;;;11.87;100.00;98882.00;5032415;28;20087;-79
2023/03/13 08:56:19;;;;;;;3.77;1.80;;;11.50;99.90;;;11.93;100.00;98894.63;5031566;28;20337;-78
2023/03/13 08:58:49;;;;;;;3.35;1.70;;;11.50;99.90;;;11.89;100.00;98892.69;5032179;28;20036;-79
2023/03/13 09:01:16;;;;;;;4.32;1.77;;;11.60;99.90;;;11.96;100.00;98887.78;5030802;28;20038;-78
2023/03/13 09:03:43;;;;;;;4.18;1.90;;;11.60;99.90;;;12.08;100.00;98888.41;5030933;28;20085;-78
2023/03/13 09:06:10;;;;;;;4.85;2.13;;;11.70;99.90;;;12.26;100.00;98874.47;5023544;28;20132;-78
2023/03/13 09:08:37;;;;;;;5.35;1.60;;;11.80;99.90;;;12.29;100.00;98876.66;5030925;28;20108;-79
2023/03/13 09:11:16;;;;;;;3.90;2.00;;;11.90;99.90;;;12.33;100.00;98869.56;5030711;28;20120;-79
2023/03/13 09:13:45;;;;;;;5.15;1.80;;;12.00;99.90;;;12.30;100.00;98886.50;5027356;28;20397;-78
2023/03/13 09:16:17;;;;;;;3.83;1.58;;;12.00;99.90;;;12.37;100.00;98870.66;5031445;28;20069;-78
2023/03/13 09:18:44;;;;;;;4.88;1.40;;;12.10;99.90;;;12.44;100.00;98857.53;5030962;28;20042;-79
2023/03/13 09:21:15;;;;;;;6.03;1.55;;;12.10;99.90;;;12.50;100.00;98861.94;5045979;28;20045;-79
2023/03/13 09:23:41;;;;;;;4.30;1.67;;;12.20;99.90;;;12.66;100.00;98859.16;5027200;28;20044;-78
2023/03/13 09:26:08;;;;;;;4.47;1.65;;;12.40;99.90;;;12.80;100.00;98840.28;5029019;28;20045;-79
2023/03/13 09:28:35;;;;;;;4.95;1.50;;;12.50;99.90;;;12.80;100.00;98843.00;5031390;28;20485;-77
2023/03/13 09:31:33;;;;;;;4.45;1.40;;;12.50;99.90;;;12.85;100.00;98836.72;5031292;28;20033;-79
2023/03/13 09:33:59;;;;;;;3.80;1.50;;;12.60;99.90;;;12.92;100.00;98843.56;5011800;28;20053;-79
2023/03/13 09:36:27;;;;;;;3.72;1.27;;;12.70;99.90;;;13.05;100.00;98831.22;5031702;28;20511;-77
2023/03/13 09:38:57;;;;;;;4.53;1.80;;;12.70;99.90;;;13.08;100.00;98835.28;5031224;28;20064;-78
2023/03/13 09:41:30;;;;;;;5.20;1.83;;;12.80;99.90;;;13.11;100.00;98837.47;5031207;28;20291;-79
2023/03/13 09:44:04;;;;;;;4.82;1.50;;;12.80;99.90;;;13.12;100.00;98830.91;5029659;28;20076;-80
2023/03/13 09:47:00;;;;;;;4.63;1.63;;;12.80;99.90;;;13.23;100.00;98815.25;5046212;28;20037;-78
2023/03/13 09:50:13;;;;;;;4.25;1.20;;;12.90;99.90;;;13.31;100.00;98813.88;5012368;28;20048;-77
2023/03/13 09:52:40;;;;;;;2.80;1.23;;;13.00;99.90;;;13.48;100.00;98811.66;4972703;28;20062;-78
2023/03/13 09:55:31;;;;;;;6.65;1.40;;;13.10;99.90;;;13.68;100.00;98818.13;4989069;28;20532;-78
2023/03/13 09:58:23;;;;;;;3.88;1.42;;;13.20;99.90;;;13.67;100.00;98821.97;5018139;28;20511;-78
2023/03/13 10:01:02;;;;;;;3.90;1.40;;;13.30;99.90;;;13.66;100.00;98834.03;5023397;28;20033;-82
2023/03/13 10:03:43;;;;;;;2.22;1.20;;;13.40;99.90;;;13.86;100.00;98796.63;5027752;28;20072;-81
2023/03/13 10:06:19;;;;;;;2.35;1.17;;;13.50;99.90;;;13.80;100.00;98806.84;5030481;28;20428;-78
2023/03/13 10:08:45;;;;;;;5.15;1.45;;;13.60;99.90;;;13.92;100.00;98814.69;5025810;28;20038;-78
2023/03/13 10:11:43;;;;;;;2.22;1.30;;;13.70;99.90;;;13.82;100.00;98829.28;5043727;28;20423;-79
2023/03/13 10:14:29;;;;;;;3.67;1.40;;;13.60;99.90;;;14.02;100.00;98824.75;5045019;28;20045;-79
2023/03/13 10:17:29;;;;;;;3.00;1.30;;;13.60;99.90;;;14.12;100.00;98827.44;5025023;28;20034;-75
2023/03/13 10:20:23;;;;;;;;;;;13.70;99.90;;;14.16;100.00;98825.78;5026570;28;20071;-79
2023/03/13 10:23:04;;;;;;;2.83;1.38;;;13.70;99.90;;;14.09;100.00;98833.50;5042815;28;19917;-78
2023/03/13 10:25:37;;;;;;;2.85;1.38;;;13.80;99.90;;;14.13;100.00;98820.88;5026702;28;20073;-81
2023/03/13 10:28:04;;;;;;;2.70;1.20;;;13.80;99.90;;;14.28;100.00;98822.66;5026343;28;20045;-79
2023/03/13 10:30:34;;;;;;;4.80;1.63;;;13.80;99.90;;;14.29;100.00;98812.50;5029931;28;20068;-79
2023/03/13 10:33:10;;;;;;;4.88;1.42;;;13.90;99.90;;;14.31;100.00;98824.00;5030357;28;20107;-80
2023/03/13 10:35:41;;;;;;;5.82;1.42;;;14.00;99.90;;;14.36;100.00;98843.19;5028884;28;20029;-80
2023/03/13 10:38:20;;;;;;;4.45;1.60;;;14.00;99.90;;;14.38;100.00;98838.25;5021416;28;20041;-80
2023/03/13 10:40:58;;;;;;;5.15;1.40;;;14.10;99.90;;;14.30;100.00;98842.41;5028993;28;20064;-79
2023/03/13 10:43:27;;;;;;;3.63;1.45;;;14.00;99.90;;;14.32;100.00;98840.19;5029982;28;20168;-81